sensor_id;sensor_type;location;lat;lon;timestamp;pressure;altitude;pressure_sealevel;temperature;humidity
28167;BME280;15455;53.376;-6.262;2023-08-17T00:02:43;101952.66;;;10.84;100.00
28167;BME280;15455;53.376;-6.262;2023-08-17T00:05:29;101954.44;;;10.86;100.00
28167;BME280;15455;53.376;-6.262;2023-08-17T00:08:17;101950.97;;;10.87;100.00
28167;BME280;15455;53.376;-6.262;2023-08-17T00:11:03;101955.34;;;10.90;100.00
28167;BME280;15455;53.376;-6.262;2023-08-17T00:13:49;101955.34;;;10.88;100.00
28167;BME280;15455;53.376;-6.262;2023-08-17T00:16:34;101959.66;;;10.86;100.00
28167;BME280;15455;53.376;-6.262;2023-08-17T00:19:20;101954.44;;;10.85;100.00
28167;BME280;15455;53.376;-6.262;2023-08-17T00:22:05;101959.66;;;10.86;100.00
28167;BME280;15455;53.376;-6.262;2023-08-17T00:24:50;101957.94;;;10.88;100.00
28167;BME280;15455;53.376;-6.262;2023-08-17T00:27:36;101953.59;;;10.89;100.00
28167;BME280;15455;53.376;-6.262;2023-08-17T00:30:22;101951.81;;;10.85;100.00
28167;BME280;15455;53.376;-6.262;2023-08-17T00:33:07;101952.50;;;10.76;100.00
28167;BME280;15455;53.376;-6.262;2023-08-17T00:35:53;101949.78;;;10.68;100.00
28167;BME280;15455;53.376;-6.262;2023-08-17T00:38:39;101950.72;;;10.70;100.00
28167;BME280;15455;53.376;-6.262;2023-08-17T00:41:24;101948.25;;;10.80;100.00
28167;BME280;15455;53.376;-6.262;2023-08-17T00:44:10;101951.84;;;10.88;100.00
28167;BME280;15455;53.376;-6.262;2023-08-17T00:46:55;101951.94;;;10.92;100.00
28167;BME280;15455;53.376;-6.262;2023-08-17T00:49:41;101945.78;;;10.90;100.00
28167;BME280;15455;53.376;-6.262;2023-08-17T00:52:28;101950.97;;;10.89;100.00
28167;BME280;15455;53.376;-6.262;2023-08-17T00:55:16;101948.44;;;10.92;100.00
28167;BME280;15455;53.376;-6.262;2023-08-17T00:58:02;101945.97;;;11.01;100.00
28167;BME280;15455;53.376;-6.262;2023-08-17T01:00:48;101948.75;;;11.13;100.00
28167;BME280;15455;53.376;-6.262;2023-08-17T01:03:33;101953.16;;;11.18;100.00
28167;BME280;15455;53.376;-6.262;2023-08-17T01:06:19;101949.72;;;11.22;100.00
28167;BME280;15455;53.376;-6.262;2023-08-17T01:09:05;101956.72;;;11.23;100.00
28167;BME280;15455;53.376;-6.262;2023-08-17T01:12:03;101954.91;;;11.19;100.00
28167;BME280;15455;53.376;-6.262;2023-08-17T01:17:48;101939.78;;;10.96;100.00
28167;BME280;15455;53.376;-6.262;2023-08-17T01:20:38;101927.56;;;10.92;100.00
28167;BME280;15455;53.376;-6.262;2023-08-17T01:23:24;101928.34;;;10.86;100.00
28167;BME280;15455;53.376;-6.262;2023-08-17T01:26:10;101926.47;;;10.79;100.00
28167;BME280;15455;53.376;-6.262;2023-08-17T01:28:55;101924.63;;;10.72;100.00
28167;BME280;15455;53.376;-6.262;2023-08-17T01:35:02;101920.03;;;10.58;100.00
28167;BME280;15455;53.376;-6.262;2023-08-17T01:37:50;101914.75;;;10.54;100.00
28167;BME280;15455;53.376;-6.262;2023-08-17T01:40:39;101918.13;;;10.48;100.00
28167;BME280;15455;53.376;-6.262;2023-08-17T01:43:25;101912.91;;;10.48;100.00
28167;BME280;15455;53.376;-6.262;2023-08-17T01:46:16;101915.44;;;10.42;100.00
28167;BME280;15455;53.376;-6.262;2023-08-17T01:49:01;101911.03;;;10.39;100.00
28167;BME280;15455;53.376;-6.262;2023-08-17T01:51:48;101912.03;;;10.48;100.00
28167;BME280;15455;53.376;-6.262;2023-08-17T01:54:33;101912.22;;;10.60;100.00
28167;BME280;15455;53.376;-6.262;2023-08-17T01:57:18;101912.34;;;10.66;100.00
28167;BME280;15455;53.376;-6.262;2023-08-17T02:00:05;101919.44;;;10.73;100.00
28167;BME280;15455;53.376;-6.262;2023-08-17T02:02:58;101917.88;;;10.85;100.00
28167;BME280;15455;53.376;-6.262;2023-08-17T02:05:46;101928.47;;;10.97;100.00
28167;BME280;15455;53.376;-6.262;2023-08-17T02:08:33;101926.84;;;11.04;100.00
28167;BME280;15455;53.376;-6.262;2023-08-17T02:11:20;101931.28;;;11.09;100.00
28167;BME280;15455;53.376;-6.262;2023-08-17T02:14:06;101932.22;;;11.16;100.00
28167;BME280;15455;53.376;-6.262;2023-08-17T02:16:52;101928.78;;;11.17;100.00
28167;BME280;15455;53.376;-6.262;2023-08-17T02:19:37;101921.75;;;11.15;100.00
28167;BME280;15455;53.376;-6.262;2023-08-17T02:22:23;101927.00;;;11.15;100.00
28167;BME280;15455;53.376;-6.262;2023-08-17T02:25:12;101921.75;;;11.13;100.00
28167;BME280;15455;53.376;-6.262;2023-08-17T02:27:57;101923.56;;;11.19;100.00
28167;BME280;15455;53.376;-6.262;2023-08-17T02:30:45;101926.19;;;11.20;100.00
28167;BME280;15455;53.376;-6.262;2023-08-17T02:33:31;101931.41;;;11.19;100.00
28167;BME280;15455;53.376;-6.262;2023-08-17T02:36:19;101919.19;;;11.18;100.00
28167;BME280;15455;53.376;-6.262;2023-08-17T02:39:04;101922.72;;;11.20;100.00
28167;BME280;15455;53.376;-6.262;2023-08-17T02:41:50;101921.00;;;11.22;100.00
28167;BME280;15455;53.376;-6.262;2023-08-17T02:44:35;101919.16;;;11.16;100.00
28167;BME280;15455;53.376;-6.262;2023-08-17T02:47:21;101915.63;;;11.11;100.00
28167;BME280;15455;53.376;-6.262;2023-08-17T02:50:06;101912.97;;;11.08;100.00
28167;BME280;15455;53.376;-6.262;2023-08-17T02:52:52;101906.81;;;11.04;100.00
28167;BME280;15455;53.376;-6.262;2023-08-17T02:55:38;101909.44;;;11.06;100.00
28167;BME280;15455;53.376;-6.262;2023-08-17T02:58:25;101905.94;;;11.04;100.00
28167;BME280;15455;53.376;-6.262;2023-08-17T03:01:11;101894.69;;;11.08;100.00
28167;BME280;15455;53.376;-6.262;2023-08-17T03:03:57;101894.81;;;11.17;100.00
28167;BME280;15455;53.376;-6.262;2023-08-17T03:06:42;101891.44;;;11.27;100.00
28167;BME280;15455;53.376;-6.262;2023-08-17T03:09:28;101895.88;;;11.33;100.00
28167;BME280;15455;53.376;-6.262;2023-08-17T03:12:14;101893.31;;;11.36;100.00
28167;BME280;15455;53.376;-6.262;2023-08-17T03:14:59;101886.41;;;11.41;100.00
28167;BME280;15455;53.376;-6.262;2023-08-17T03:17:47;101889.03;;;11.43;100.00
28167;BME280;15455;53.376;-6.262;2023-08-17T03:20:32;101873.41;;;11.49;100.00
28167;BME280;15455;53.376;-6.262;2023-08-17T03:23:17;101879.63;;;11.56;100.00
28167;BME280;15455;53.376;-6.262;2023-08-17T03:26:03;101880.50;;;11.59;100.00
28167;BME280;15455;53.376;-6.262;2023-08-17T03:28:49;101884.88;;;11.59;100.00
28167;BME280;15455;53.376;-6.262;2023-08-17T03:31:36;101880.44;;;11.52;100.00
28167;BME280;15455;53.376;-6.262;2023-08-17T03:34:24;101873.34;;;11.43;100.00
28167;BME280;15455;53.376;-6.262;2023-08-17T03:37:10;101877.75;;;11.45;100.00
28167;BME280;15455;53.376;-6.262;2023-08-17T03:39:55;101873.34;;;11.43;100.00
28167;BME280;15455;53.376;-6.262;2023-08-17T03:42:41;101871.66;;;11.48;100.00
28167;BME280;15455;53.376;-6.262;2023-08-17T03:45:29;101872.56;;;11.49;100.00
28167;BME280;15455;53.376;-6.262;2023-08-17T03:48:15;101865.59;;;11.52;100.00
28167;BME280;15455;53.376;-6.262;2023-08-17T03:51:00;101870.94;;;11.60;100.00
28167;BME280;15455;53.376;-6.262;2023-08-17T03:53:47;101873.59;;;11.61;100.00
28167;BME280;15455;53.376;-6.262;2023-08-17T03:56:32;101870.03;;;11.58;100.00
28167;BME280;15455;53.376;-6.262;2023-08-17T03:59:18;101863.97;;;11.59;100.00
28167;BME280;15455;53.376;-6.262;2023-08-17T04:02:03;101863.03;;;11.57;100.00
28167;BME280;15455;53.376;-6.262;2023-08-17T04:04:48;101869.13;;;11.54;100.00
28167;BME280;15455;53.376;-6.262;2023-08-17T04:07:34;101866.44;;;11.48;100.00
28167;BME280;15455;53.376;-6.262;2023-08-17T04:10:21;101866.50;;;11.51;100.00
28167;BME280;15455;53.376;-6.262;2023-08-17T04:13:06;101870.88;;;11.57;100.00
28167;BME280;15455;53.376;-6.262;2023-08-17T04:15:52;101881.44;;;11.63;100.00
28167;BME280;15455;53.376;-6.262;2023-08-17T04:18:38;101874.50;;;11.67;100.00
28167;BME280;15455;53.376;-6.262;2023-08-17T04:21:23;101874.53;;;11.71;100.00
28167;BME280;15455;53.376;-6.262;2023-08-17T04:24:10;101877.16;;;11.73;100.00
28167;BME280;15455;53.376;-6.262;2023-08-17T04:26:55;101877.22;;;11.74;100.00
28167;BME280;15455;53.376;-6.262;2023-08-17T04:29:40;101874.53;;;11.71;100.00
28167;BME280;15455;53.376;-6.262;2023-08-17T04:32:26;101874.53;;;11.71;100.00
28167;BME280;15455;53.376;-6.262;2023-08-17T04:35:11;101869.25;;;11.67;100.00
28167;BME280;15455;53.376;-6.262;2023-08-17T04:37:57;101863.13;;;11.61;100.00
28167;BME280;15455;53.376;-6.262;2023-08-17T04:40:42;101864.03;;;11.68;100.00
28167;BME280;15455;53.376;-6.262;2023-08-17T04:43:28;101860.53;;;11.64;100.00
28167;BME280;15455;53.376;-6.262;2023-08-17T04:46:14;101860.53;;;11.64;100.00
28167;BME280;15455;53.376;-6.262;2023-08-17T04:49:00;101859.66;;;11.65;100.00
28167;BME280;15455;53.376;-6.262;2023-08-17T04:51:45;101856.22;;;11.70;100.00
28167;BME280;15455;53.376;-6.262;2023-08-17T04:54:31;101852.88;;;11.81;100.00
28167;BME280;15455;53.376;-6.262;2023-08-17T04:57:16;101860.81;;;11.92;100.00
28167;BME280;15455;53.376;-6.262;2023-08-17T05:00:04;101861.72;;;11.94;100.00
28167;BME280;15455;53.376;-6.262;2023-08-17T05:02:54;101854.72;;;11.92;100.00
28167;BME280;15455;53.376;-6.262;2023-08-17T05:05:42;101858.28;;;11.97;100.00
28167;BME280;15455;53.376;-6.262;2023-08-17T05:08:28;101850.44;;;12.00;100.00
28167;BME280;15455;53.376;-6.262;2023-08-17T05:11:14;101851.38;;;12.05;100.00
28167;BME280;15455;53.376;-6.262;2023-08-17T05:13:59;101848.78;;;12.08;100.00
28167;BME280;15455;53.376;-6.262;2023-08-17T05:16:46;101841.88;;;12.13;100.00
28167;BME280;15455;53.376;-6.262;2023-08-17T05:19:31;101838.38;;;12.16;100.00
28167;BME280;15455;53.376;-6.262;2023-08-17T05:22:17;101852.34;;;12.16;100.00
28167;BME280;15455;53.376;-6.262;2023-08-17T05:25:03;101847.97;;;12.14;100.00
28167;BME280;15455;53.376;-6.262;2023-08-17T05:27:51;101848.81;;;12.13;100.00
28167;BME280;15455;53.376;-6.262;2023-08-17T05:30:38;101842.72;;;12.12;100.00
28167;BME280;15455;53.376;-6.262;2023-08-17T05:33:23;101843.59;;;12.14;100.00
28167;BME280;15455;53.376;-6.262;2023-08-17T05:36:10;101844.47;;;12.12;100.00
28167;BME280;15455;53.376;-6.262;2023-08-17T05:38:56;101846.22;;;12.16;100.00
28167;BME280;15455;53.376;-6.262;2023-08-17T05:41:41;101844.56;;;12.23;100.00
28167;BME280;15455;53.376;-6.262;2023-08-17T05:44:28;101842.84;;;12.26;100.00
28167;BME280;15455;53.376;-6.262;2023-08-17T05:47:13;101839.38;;;12.32;100.00
28167;BME280;15455;53.376;-6.262;2023-08-17T05:50:03;101846.41;;;12.39;100.00
28167;BME280;15455;53.376;-6.262;2023-08-17T05:52:48;101848.25;;;12.48;100.00
28167;BME280;15455;53.376;-6.262;2023-08-17T05:55:34;101842.22;;;12.58;100.00
28167;BME280;15455;53.376;-6.262;2023-08-17T05:58:19;101847.53;;;12.72;100.00
28167;BME280;15455;53.376;-6.262;2023-08-17T06:01:07;101849.28;;;12.75;100.00
28167;BME280;15455;53.376;-6.262;2023-08-17T06:03:53;101846.69;;;12.78;100.00
28167;BME280;15455;53.376;-6.262;2023-08-17T06:06:38;101844.97;;;12.80;100.00
28167;BME280;15455;53.376;-6.262;2023-08-17T06:09:24;101841.47;;;12.82;100.00
28167;BME280;15455;53.376;-6.262;2023-08-17T06:12:10;101843.25;;;12.90;100.00
28167;BME280;15455;53.376;-6.262;2023-08-17T06:14:55;101844.16;;;12.92;100.00
28167;BME280;15455;53.376;-6.262;2023-08-17T06:17:41;101836.31;;;12.96;100.00
28167;BME280;15455;53.376;-6.262;2023-08-17T06:20:28;101838.94;;;12.96;100.00
28167;BME280;15455;53.376;-6.262;2023-08-17T06:23:13;101833.69;;;12.96;100.00
28167;BME280;15455;53.376;-6.262;2023-08-17T06:25:59;101835.47;;;13.00;100.00
28167;BME280;15455;53.376;-6.262;2023-08-17T06:28:45;101840.75;;;13.11;100.00
28167;BME280;15455;53.376;-6.262;2023-08-17T06:31:30;101831.19;;;13.23;100.00
28167;BME280;15455;53.376;-6.262;2023-08-17T06:34:15;101820.75;;;13.30;100.00
28167;BME280;15455;53.376;-6.262;2023-08-17T06:37:03;101825.16;;;13.36;100.00
28167;BME280;15455;53.376;-6.262;2023-08-17T06:39:49;101830.44;;;13.39;100.00
28167;BME280;15455;53.376;-6.262;2023-08-17T06:42:34;101822.56;;;13.45;100.00
28167;BME280;15455;53.376;-6.262;2023-08-17T06:45:20;101819.94;;;13.48;100.00
28167;BME280;15455;53.376;-6.262;2023-08-17T06:48:06;101826.09;;;13.53;100.00
28167;BME280;15455;53.376;-6.262;2023-08-17T06:50:51;101818.22;;;13.57;100.00
28167;BME280;15455;53.376;-6.262;2023-08-17T06:53:37;101824.38;;;13.71;100.00
28167;BME280;15455;53.376;-6.262;2023-08-17T06:56:22;101831.41;;;13.78;100.00
28167;BME280;15455;53.376;-6.262;2023-08-17T06:59:08;101822.66;;;13.85;100.00
28167;BME280;15455;53.376;-6.262;2023-08-17T07:01:54;101823.53;;;13.92;100.00
28167;BME280;15455;53.376;-6.262;2023-08-17T07:04:39;101815.66;;;13.98;100.00
28167;BME280;15455;53.376;-6.262;2023-08-17T07:07:25;101810.41;;;14.06;100.00
28167;BME280;15455;53.376;-6.262;2023-08-17T07:10:11;101807.78;;;14.12;100.00
28167;BME280;15455;53.376;-6.262;2023-08-17T07:12:57;101809.53;;;14.22;100.00
28167;BME280;15455;53.376;-6.262;2023-08-17T07:15:42;101804.28;;;14.38;100.00
28167;BME280;15455;53.376;-6.262;2023-08-17T07:18:28;101798.13;;;14.50;100.00
28167;BME280;15455;53.376;-6.262;2023-08-17T07:21:13;101804.22;;;14.61;100.00
28167;BME280;15455;53.376;-6.262;2023-08-17T07:24:11;101803.34;;;14.70;100.00
28167;BME280;15455;53.376;-6.262;2023-08-17T07:26:57;101802.47;;;14.79;100.00
28167;BME280;15455;53.376;-6.262;2023-08-17T07:29:43;101806.81;;;14.84;100.00
28167;BME280;15455;53.376;-6.262;2023-08-17T07:32:28;101816.44;;;14.91;100.00
28167;BME280;15455;53.376;-6.262;2023-08-17T07:35:14;101812.94;;;14.92;100.00
28167;BME280;15455;53.376;-6.262;2023-08-17T07:37:59;101806.81;;;14.93;100.00
28167;BME280;15455;53.376;-6.262;2023-08-17T07:40:54;101803.28;;;14.91;100.00
28167;BME280;15455;53.376;-6.262;2023-08-17T07:43:41;101794.53;;;14.94;100.00
28167;BME280;15455;53.376;-6.262;2023-08-17T07:46:26;101788.41;;;14.93;100.00
28167;BME280;15455;53.376;-6.262;2023-08-17T07:49:12;101789.28;;;14.94;100.00
28167;BME280;15455;53.376;-6.262;2023-08-17T07:52:14;101778.78;;;14.92;100.00
28167;BME280;15455;53.376;-6.262;2023-08-17T07:55:01;101776.13;;;14.92;100.00
28167;BME280;15455;53.376;-6.262;2023-08-17T07:57:47;101772.63;;;14.98;100.00
28167;BME280;15455;53.376;-6.262;2023-08-17T08:00:32;101777.84;;;15.04;100.00
28167;BME280;15455;53.376;-6.262;2023-08-17T08:03:18;101776.06;;;15.13;100.00
28167;BME280;15455;53.376;-6.262;2023-08-17T08:06:03;101776.88;;;15.24;100.00
28167;BME280;15455;53.376;-6.262;2023-08-17T08:08:48;101773.31;;;15.36;100.00
28167;BME280;15455;53.376;-6.262;2023-08-17T08:11:34;101764.50;;;15.40;100.00
28167;BME280;15455;53.376;-6.262;2023-08-17T08:14:20;101761.81;;;15.48;100.00
28167;BME280;15455;53.376;-6.262;2023-08-17T08:17:05;101758.25;;;15.55;100.00
28167;BME280;15455;53.376;-6.262;2023-08-17T08:19:51;101761.75;;;15.60;100.00
28167;BME280;15455;53.376;-6.262;2023-08-17T08:22:36;101752.03;;;15.65;100.00
28167;BME280;15455;53.376;-6.262;2023-08-17T08:25:22;101752.91;;;15.66;100.00
28167;BME280;15455;53.376;-6.262;2023-08-17T08:28:07;101739.78;;;15.62;100.00
28167;BME280;15455;53.376;-6.262;2023-08-17T08:30:53;101742.41;;;15.64;100.00
28167;BME280;15455;53.376;-6.262;2023-08-17T08:33:39;101738.84;;;15.70;100.00
28167;BME280;15455;53.376;-6.262;2023-08-17T08:36:25;101737.03;;;15.78;100.00
28167;BME280;15455;53.376;-6.262;2023-08-17T08:39:11;101737.00;;;15.84;100.00
28167;BME280;15455;53.376;-6.262;2023-08-17T08:41:58;101722.03;;;15.91;100.00
28167;BME280;15455;53.376;-6.262;2023-08-17T08:44:44;101725.50;;;15.94;100.00
28167;BME280;15455;53.376;-6.262;2023-08-17T08:47:31;101720.22;;;15.99;100.00
28167;BME280;15455;53.376;-6.262;2023-08-17T08:50:20;101720.22;;;15.99;100.00
28167;BME280;15455;53.376;-6.262;2023-08-17T08:53:15;101715.78;;;16.03;100.00
28167;BME280;15455;53.376;-6.262;2023-08-17T08:56:03;101720.13;;;16.08;100.00
28167;BME280;15455;53.376;-6.262;2023-08-17T08:58:48;101714.81;;;16.13;100.00
28167;BME280;15455;53.376;-6.262;2023-08-17T09:01:38;101713.03;;;16.15;100.00
28167;BME280;15455;53.376;-6.262;2023-08-17T09:04:25;101705.16;;;16.15;100.00
28167;BME280;15455;53.376;-6.262;2023-08-17T09:07:14;101701.59;;;16.18;100.00
28167;BME280;15455;53.376;-6.262;2023-08-17T09:10:02;101705.94;;;16.20;100.00
28167;BME280;15455;53.376;-6.262;2023-08-17T09:12:48;101704.19;;;16.22;100.00
28167;BME280;15455;53.376;-6.262;2023-08-17T09:15:35;101699.75;;;16.24;100.00
28167;BME280;15455;53.376;-6.262;2023-08-17T09:18:20;101690.03;;;16.31;100.00
28167;BME280;15455;53.376;-6.262;2023-08-17T09:21:06;101688.19;;;16.38;100.00
28167;BME280;15455;53.376;-6.262;2023-08-17T09:23:52;101682.84;;;16.45;100.00
28167;BME280;15455;53.376;-6.262;2023-08-17T09:26:43;101667.78;;;16.57;100.00
28167;BME280;15455;53.376;-6.262;2023-08-17T09:29:31;101664.16;;;16.65;100.00
28167;BME280;15455;53.376;-6.262;2023-08-17T09:32:23;101665.72;;;16.79;100.00
28167;BME280;15455;53.376;-6.262;2023-08-17T09:35:09;101657.69;;;16.90;100.00
28167;BME280;15455;53.376;-6.262;2023-08-17T09:37:55;101649.75;;;16.94;100.00
28167;BME280;15455;53.376;-6.262;2023-08-17T09:40:40;101639.06;;;17.02;100.00
28167;BME280;15455;53.376;-6.262;2023-08-17T09:43:26;101631.94;;;17.09;100.00
28167;BME280;15455;53.376;-6.262;2023-08-17T09:46:14;101624.78;;;17.15;100.00
28167;BME280;15455;53.376;-6.262;2023-08-17T09:49:03;101623.69;;;17.30;100.00
28167;BME280;15455;53.376;-6.262;2023-08-17T09:51:53;101608.47;;;17.45;100.00
28167;BME280;15455;53.376;-6.262;2023-08-17T09:54:39;101591.69;;;17.49;100.00
28167;BME280;15455;53.376;-6.262;2023-08-17T09:57:25;101585.47;;;17.53;100.00
28167;BME280;15455;53.376;-6.262;2023-08-17T10:00:11;101581.88;;;17.57;100.00
28167;BME280;15455;53.376;-6.262;2023-08-17T10:02:57;101587.06;;;17.62;100.00
28167;BME280;15455;53.376;-6.262;2023-08-17T10:05:55;101570.19;;;17.69;100.00
28167;BME280;15455;53.376;-6.262;2023-08-17T10:08:47;101567.53;;;17.70;100.00
28167;BME280;15455;53.376;-6.262;2023-08-17T10:11:37;101565.69;;;17.76;100.00
28167;BME280;15455;53.376;-6.262;2023-08-17T10:14:39;101567.31;;;17.83;100.00
28167;BME280;15455;53.376;-6.262;2023-08-17T10:17:31;101561.97;;;17.86;100.00
28167;BME280;15455;53.376;-6.262;2023-08-17T10:20:20;101559.19;;;17.94;100.00
28167;BME280;15455;53.376;-6.262;2023-08-17T10:23:15;101558.13;;;18.02;100.00
28167;BME280;15455;53.376;-6.262;2023-08-17T10:26:03;101562.34;;;18.13;100.00
28167;BME280;15455;53.376;-6.262;2023-08-17T10:28:50;101555.91;;;18.26;100.00
28167;BME280;15455;53.376;-6.262;2023-08-17T10:31:38;101550.41;;;18.35;100.00
28167;BME280;15455;53.376;-6.262;2023-08-17T10:34:23;101542.50;;;18.34;100.00
28167;BME280;15455;53.376;-6.262;2023-08-17T10:37:10;101541.50;;;18.39;100.00
28167;BME280;15455;53.376;-6.262;2023-08-17T10:39:56;101543.00;;;18.51;100.00
28167;BME280;15455;53.376;-6.262;2023-08-17T10:42:42;101541.09;;;18.58;100.00
28167;BME280;15455;53.376;-6.262;2023-08-17T10:45:30;101541.72;;;18.69;100.00
28167;BME280;15455;53.376;-6.262;2023-08-17T10:51:04;101537.03;;;18.81;100.00
28167;BME280;15455;53.376;-6.262;2023-08-17T10:53:52;101529.84;;;18.86;100.00
28167;BME280;15455;53.376;-6.262;2023-08-17T10:56:40;101542.13;;;18.90;100.00
28167;BME280;15455;53.376;-6.262;2023-08-17T10:59:26;101538.50;;;18.94;100.00
28167;BME280;15455;53.376;-6.262;2023-08-17T11:02:12;101533.22;;;18.94;100.00
28167;BME280;15455;53.376;-6.262;2023-08-17T11:04:57;101539.44;;;18.91;100.00
28167;BME280;15455;53.376;-6.262;2023-08-17T11:07:44;101534.22;;;18.88;100.00
28167;BME280;15455;53.376;-6.262;2023-08-17T11:10:30;101537.72;;;18.89;100.00
28167;BME280;15455;53.376;-6.262;2023-08-17T11:13:16;101537.72;;;18.89;100.00
28167;BME280;15455;53.376;-6.262;2023-08-17T11:16:02;101540.41;;;18.86;100.00
28167;BME280;15455;53.376;-6.262;2023-08-17T11:18:50;101540.66;;;18.77;100.00
28167;BME280;15455;53.376;-6.262;2023-08-17T11:21:36;101538.25;;;18.66;100.00
28167;BME280;15455;53.376;-6.262;2023-08-17T11:24:22;101540.84;;;18.67;100.00
28167;BME280;15455;53.376;-6.262;2023-08-17T11:27:14;101541.72;;;18.69;100.00
28167;BME280;15455;53.376;-6.262;2023-08-17T11:29:59;101539.88;;;18.71;100.00
28167;BME280;15455;53.376;-6.262;2023-08-17T11:32:52;101540.56;;;18.80;100.00
28167;BME280;15455;53.376;-6.262;2023-08-17T11:35:38;101539.47;;;18.90;100.00
28167;BME280;15455;53.376;-6.262;2023-08-17T11:38:25;101527.84;;;18.97;100.00
28167;BME280;15455;53.376;-6.262;2023-08-17T11:41:11;101536.38;;;19.08;100.00
28167;BME280;15455;53.376;-6.262;2023-08-17T11:44:01;101533.53;;;19.16;100.00
28167;BME280;15455;53.376;-6.262;2023-08-17T11:46:48;101533.25;;;19.27;100.00
28167;BME280;15455;53.376;-6.262;2023-08-17T11:49:33;101522.28;;;19.41;100.00
28167;BME280;15455;53.376;-6.262;2023-08-17T11:52:26;101517.53;;;19.54;100.00
28167;BME280;15455;53.376;-6.262;2023-08-17T11:55:16;101515.47;;;19.65;100.00
28167;BME280;15455;53.376;-6.262;2023-08-17T11:58:03;101504.59;;;19.74;100.00
28167;BME280;15455;53.376;-6.262;2023-08-17T12:00:54;101505.28;;;19.83;100.00
28167;BME280;15455;53.376;-6.262;2023-08-17T12:03:41;101503.31;;;19.89;100.00
28167;BME280;15455;53.376;-6.262;2023-08-17T12:06:27;101498.34;;;20.08;100.00
28167;BME280;15455;53.376;-6.262;2023-08-17T12:09:13;101502.19;;;20.28;100.00
28167;BME280;15455;53.376;-6.262;2023-08-17T12:12:00;101501.09;;;20.34;100.00
28167;BME280;15455;53.376;-6.262;2023-08-17T12:14:47;101485.00;;;20.40;100.00
28167;BME280;15455;53.376;-6.262;2023-08-17T12:17:33;101490.47;;;20.62;100.00
28167;BME280;15455;53.376;-6.262;2023-08-17T12:20:19;101494.69;;;20.69;100.00
28167;BME280;15455;53.376;-6.262;2023-08-17T12:23:06;101490.94;;;20.76;100.00
28167;BME280;15455;53.376;-6.262;2023-08-17T12:25:53;101492.97;;;20.95;100.00
28167;BME280;15455;53.376;-6.262;2023-08-17T12:28:40;101486.38;;;21.07;100.00
28167;BME280;15455;53.376;-6.262;2023-08-17T12:31:25;101479.75;;;20.93;100.00
28167;BME280;15455;53.376;-6.262;2023-08-17T12:34:11;101486.69;;;20.71;100.00
28167;BME280;15455;53.376;-6.262;2023-08-17T12:36:57;101469.84;;;20.43;100.00
28167;BME280;15455;53.376;-6.262;2023-08-17T12:39:42;101480.22;;;20.23;100.00
28167;BME280;15455;53.376;-6.262;2023-08-17T12:42:27;101476.03;;;20.16;100.00
28167;BME280;15455;53.376;-6.262;2023-08-17T12:45:14;101481.09;;;20.23;100.00
28167;BME280;15455;53.376;-6.262;2023-08-17T12:48:00;101482.53;;;20.35;100.00
28167;BME280;15455;53.376;-6.262;2023-08-17T12:50:46;101479.81;;;20.37;100.00
28167;BME280;15455;53.376;-6.262;2023-08-17T12:53:31;101481.00;;;20.26;100.00
28167;BME280;15455;53.376;-6.262;2023-08-17T12:56:17;101481.00;;;20.26;100.00
28167;BME280;15455;53.376;-6.262;2023-08-17T12:59:02;101486.81;;;20.38;100.00
28167;BME280;15455;53.376;-6.262;2023-08-17T13:01:47;101478.00;;;20.65;100.00
28167;BME280;15455;53.376;-6.262;2023-08-17T13:04:33;101473.09;;;20.81;100.00
28167;BME280;15455;53.376;-6.262;2023-08-17T13:07:19;101473.03;;;20.83;100.00
28167;BME280;15455;53.376;-6.262;2023-08-17T13:10:05;101471.28;;;20.82;100.00
28167;BME280;15455;53.376;-6.262;2023-08-17T13:12:50;101465.94;;;20.84;100.00
28167;BME280;15455;53.376;-6.262;2023-08-17T13:15:40;101463.22;;;20.85;100.00
28167;BME280;15455;53.376;-6.262;2023-08-17T13:18:27;101455.94;;;20.92;100.00
28167;BME280;15455;53.376;-6.262;2023-08-17T13:21:13;101450.56;;;20.93;100.00
28167;BME280;15455;53.376;-6.262;2023-08-17T13:24:01;101456.56;;;20.98;100.00
28167;BME280;15455;53.376;-6.262;2023-08-17T13:26:48;101448.94;;;21.14;100.00
28167;BME280;15455;53.376;-6.262;2023-08-17T13:29:38;101449.78;;;21.40;100.00
28167;BME280;15455;53.376;-6.262;2023-08-17T13:32:24;101440.00;;;21.66;100.00
28167;BME280;15455;53.376;-6.262;2023-08-17T13:35:11;101445.72;;;21.79;100.00
28167;BME280;15455;53.376;-6.262;2023-08-17T13:37:56;101433.63;;;21.94;100.00
28167;BME280;15455;53.376;-6.262;2023-08-17T13:40:42;101433.28;;;22.25;100.00
28167;BME280;15455;53.376;-6.262;2023-08-17T13:43:28;101439.72;;;22.64;100.00
28167;BME280;15455;53.376;-6.262;2023-08-17T13:46:13;101428.59;;;22.75;100.00
28167;BME280;15455;53.376;-6.262;2023-08-17T13:48:59;101435.38;;;22.61;100.00
28167;BME280;15455;53.376;-6.262;2023-08-17T13:51:44;101426.19;;;22.48;100.00
28167;BME280;15455;53.376;-6.262;2023-08-17T13:54:30;101430.56;;;22.27;100.00
28167;BME280;15455;53.376;-6.262;2023-08-17T13:57:16;101425.81;;;22.13;100.00
28167;BME280;15455;53.376;-6.262;2023-08-17T14:00:01;101424.06;;;22.12;100.00
28167;BME280;15455;53.376;-6.262;2023-08-17T14:02:49;101419.28;;;21.98;100.00
28167;BME280;15455;53.376;-6.262;2023-08-17T14:05:35;101413.72;;;21.82;100.00
28167;BME280;15455;53.376;-6.262;2023-08-17T14:08:20;101407.28;;;21.65;100.00
28167;BME280;15455;53.376;-6.262;2023-08-17T14:11:05;101407.47;;;21.36;100.00
28167;BME280;15455;53.376;-6.262;2023-08-17T14:13:52;101409.75;;;21.21;100.00
28167;BME280;15455;53.376;-6.262;2023-08-17T14:16:38;101403.53;;;20.97;100.00
28167;BME280;15455;53.376;-6.262;2023-08-17T14:19:23;101413.13;;;20.76;100.00